sensor_id;sensor_type;location;lat;lon;timestamp;pressure;altitude;pressure_sealevel;temperature;humidity
27613;BME280;15036;48.094;-1.690;2023-04-21T00:00:56;100664.66;;;14.20;48.84
27613;BME280;15036;48.094;-1.690;2023-04-21T00:03:23;100659.38;;;14.43;48.58
27613;BME280;15036;48.094;-1.690;2023-04-21T00:05:49;100660.75;;;13.78;50.30
27613;BME280;15036;48.094;-1.690;2023-04-21T00:08:15;100656.31;;;14.26;49.09
27613;BME280;15036;48.094;-1.690;2023-04-21T00:10:41;100657.50;;;13.87;49.88
27613;BME280;15036;48.094;-1.690;2023-04-21T00:13:07;100645.81;;;13.99;49.70
27613;BME280;15036;48.094;-1.690;2023-04-21T00:15:33;100649.16;;;14.01;49.92
27613;BME280;15036;48.094;-1.690;2023-04-21T00:17:58;100641.44;;;13.66;50.84
27613;BME280;15036;48.094;-1.690;2023-04-21T00:20:24;100635.59;;;13.81;50.41
27613;BME280;15036;48.094;-1.690;2023-04-21T00:22:54;100637.09;;;13.52;51.17
27613;BME280;15036;48.094;-1.690;2023-04-21T00:25:20;100632.03;;;13.49;51.39
27613;BME280;15036;48.094;-1.690;2023-04-21T00:27:46;100621.47;;;13.53;51.25
27613;BME280;15036;48.094;-1.690;2023-04-21T00:30:12;100622.22;;;13.66;50.87
27613;BME280;15036;48.094;-1.690;2023-04-21T00:32:37;100617.19;;;13.63;50.96
27613;BME280;15036;48.094;-1.690;2023-04-21T00:35:03;100616.19;;;13.51;51.34
27613;BME280;15036;48.094;-1.690;2023-04-21T00:37:29;100603.31;;;13.58;51.20
27613;BME280;15036;48.094;-1.690;2023-04-21T00:39:55;100605.03;;;13.77;50.76
27613;BME280;15036;48.094;-1.690;2023-04-21T00:42:20;100603.56;;;13.50;51.66
27613;BME280;15036;48.094;-1.690;2023-04-21T00:44:46;100597.66;;;13.78;50.98
27613;BME280;15036;48.094;-1.690;2023-04-21T00:47:11;100592.41;;;13.45;51.15
27613;BME280;15036;48.094;-1.690;2023-04-21T00:49:36;100591.09;;;13.54;51.33
27613;BME280;15036;48.094;-1.690;2023-04-21T00:52:05;100588.63;;;13.46;51.38
27613;BME280;15036;48.094;-1.690;2023-04-21T00:54:31;100585.88;;;13.46;51.45
27613;BME280;15036;48.094;-1.690;2023-04-21T00:56:56;100581.97;;;13.29;51.71
27613;BME280;15036;48.094;-1.690;2023-04-21T00:59:22;100577.25;;;13.67;50.89
27613;BME280;15036;48.094;-1.690;2023-04-21T01:01:48;100575.53;;;13.17;51.90
27613;BME280;15036;48.094;-1.690;2023-04-21T01:04:14;100576.84;;;13.39;51.83
27613;BME280;15036;48.094;-1.690;2023-04-21T01:06:39;100576.69;;;13.59;51.35
27613;BME280;15036;48.094;-1.690;2023-04-21T01:09:06;100570.59;;;13.57;51.51
27613;BME280;15036;48.094;-1.690;2023-04-21T01:11:31;100567.47;;;13.78;50.75
27613;BME280;15036;48.094;-1.690;2023-04-21T01:13:57;100570.56;;;13.32;51.88
27613;BME280;15036;48.094;-1.690;2023-04-21T01:16:23;100562.13;;;12.96;53.14
27613;BME280;15036;48.094;-1.690;2023-04-21T01:18:51;100562.25;;;13.45;51.70
27613;BME280;15036;48.094;-1.690;2023-04-21T01:21:18;100569.84;;;13.43;51.60
27613;BME280;15036;48.094;-1.690;2023-04-21T01:23:44;100563.09;;;13.46;51.53
27613;BME280;15036;48.094;-1.690;2023-04-21T01:26:10;100557.22;;;13.42;51.81
27613;BME280;15036;48.094;-1.690;2023-04-21T01:28:35;100552.22;;;13.33;52.00
27613;BME280;15036;48.094;-1.690;2023-04-21T01:31:01;100560.94;;;13.54;51.48
27613;BME280;15036;48.094;-1.690;2023-04-21T01:33:27;100570.00;;;13.79;50.77
27613;BME280;15036;48.094;-1.690;2023-04-21T01:35:53;100577.03;;;13.93;50.63
27613;BME280;15036;48.094;-1.690;2023-04-21T01:38:20;100567.47;;;13.78;50.78
27613;BME280;15036;48.094;-1.690;2023-04-21T01:40:51;100568.97;;;13.49;51.02
27613;BME280;15036;48.094;-1.690;2023-04-21T01:43:19;100567.84;;;13.81;50.52
27613;BME280;15036;48.094;-1.690;2023-04-21T01:45:46;100573.28;;;13.63;51.07
27613;BME280;15036;48.094;-1.690;2023-04-21T01:48:11;100569.94;;;13.86;50.62
27613;BME280;15036;48.094;-1.690;2023-04-21T01:50:37;100563.25;;;13.75;50.61
27613;BME280;15036;48.094;-1.690;2023-04-21T01:53:02;100565.88;;;13.88;50.56
27613;BME280;15036;48.094;-1.690;2023-04-21T01:55:27;100566.63;;;13.77;50.66
27613;BME280;15036;48.094;-1.690;2023-04-21T01:57:53;100568.31;;;13.78;50.40
27613;BME280;15036;48.094;-1.690;2023-04-21T02:00:19;100562.88;;;13.72;50.88
27613;BME280;15036;48.094;-1.690;2023-04-21T02:02:44;100560.66;;;13.62;50.86
27613;BME280;15036;48.094;-1.690;2023-04-21T02:05:11;100548.22;;;13.60;51.16
27613;BME280;15036;48.094;-1.690;2023-04-21T02:07:36;100554.28;;;13.68;50.90
27613;BME280;15036;48.094;-1.690;2023-04-21T02:10:02;100549.94;;;13.79;50.44
27613;BME280;15036;48.094;-1.690;2023-04-21T02:12:27;100546.19;;;13.73;50.51
27613;BME280;15036;48.094;-1.690;2023-04-21T02:14:52;100536.16;;;13.85;50.51
27613;BME280;15036;48.094;-1.690;2023-04-21T02:17:18;100544.81;;;13.64;50.84
27613;BME280;15036;48.094;-1.690;2023-04-21T02:19:43;100547.66;;;13.76;50.57
27613;BME280;15036;48.094;-1.690;2023-04-21T02:22:08;100540.28;;;13.76;50.65
27613;BME280;15036;48.094;-1.690;2023-04-21T02:24:36;100540.97;;;13.90;50.15
27613;BME280;15036;48.094;-1.690;2023-04-21T02:27:03;100533.22;;;13.62;50.97
27613;BME280;15036;48.094;-1.690;2023-04-21T02:29:29;100533.84;;;13.64;50.95
27613;BME280;15036;48.094;-1.690;2023-04-21T02:31:55;100535.72;;;13.39;51.21
27613;BME280;15036;48.094;-1.690;2023-04-21T02:34:20;100532.13;;;13.63;51.18
27613;BME280;15036;48.094;-1.690;2023-04-21T02:36:46;100524.25;;;13.73;50.80
27613;BME280;15036;48.094;-1.690;2023-04-21T02:39:11;100524.28;;;13.67;50.55
27613;BME280;15036;48.094;-1.690;2023-04-21T02:41:37;100520.94;;;13.65;50.95
27613;BME280;15036;48.094;-1.690;2023-04-21T02:44:03;100526.66;;;13.63;50.78
27613;BME280;15036;48.094;-1.690;2023-04-21T02:46:28;100524.19;;;13.55;51.06
27613;BME280;15036;48.094;-1.690;2023-04-21T02:48:55;100519.16;;;13.52;51.05
27613;BME280;15036;48.094;-1.690;2023-04-21T02:51:21;100519.94;;;13.59;50.78
27613;BME280;15036;48.094;-1.690;2023-04-21T02:53:47;100515.91;;;13.62;50.65
27613;BME280;15036;48.094;-1.690;2023-04-21T02:56:12;100517.25;;;13.53;50.84
27613;BME280;15036;48.094;-1.690;2023-04-21T02:58:38;100518.03;;;13.60;50.77
27613;BME280;15036;48.094;-1.690;2023-04-21T03:01:04;100512.44;;;13.48;51.24
27613;BME280;15036;48.094;-1.690;2023-04-21T03:03:30;100516.56;;;13.57;50.87
27613;BME280;15036;48.094;-1.690;2023-04-21T03:06:01;100508.44;;;13.69;50.65
27613;BME280;15036;48.094;-1.690;2023-04-21T03:08:26;100507.50;;;13.57;50.74
27613;BME280;15036;48.094;-1.690;2023-04-21T03:10:52;100504.19;;;13.73;50.26
27613;BME280;15036;48.094;-1.690;2023-04-21T03:13:18;100499.47;;;13.62;50.84
27613;BME280;15036;48.094;-1.690;2023-04-21T03:15:43;100499.00;;;13.65;50.59
27613;BME280;15036;48.094;-1.690;2023-04-21T03:18:09;100499.50;;;13.55;50.79
27613;BME280;15036;48.094;-1.690;2023-04-21T03:20:35;100506.50;;;13.27;51.46
27613;BME280;15036;48.094;-1.690;2023-04-21T03:23:00;100511.94;;;13.33;51.40
27613;BME280;15036;48.094;-1.690;2023-04-21T03:25:26;100500.59;;;13.54;50.94
27613;BME280;15036;48.094;-1.690;2023-04-21T03:27:52;100502.16;;;13.44;50.98
27613;BME280;15036;48.094;-1.690;2023-04-21T03:30:18;100498.56;;;13.43;51.03
27613;BME280;15036;48.094;-1.690;2023-04-21T03:32:44;100494.53;;;13.46;51.07
27613;BME280;15036;48.094;-1.690;2023-04-21T03:35:11;100483.41;;;13.41;51.22
27613;BME280;15036;48.094;-1.690;2023-04-21T03:37:36;100491.84;;;13.39;51.19
27613;BME280;15036;48.094;-1.690;2023-04-21T03:40:03;100487.25;;;13.33;51.28
27613;BME280;15036;48.094;-1.690;2023-04-21T03:42:30;100480.81;;;13.21;51.61
27613;BME280;15036;48.094;-1.690;2023-04-21T03:44:56;100486.59;;;13.38;51.19
27613;BME280;15036;48.094;-1.690;2023-04-21T03:47:21;100483.66;;;13.08;51.87
27613;BME280;15036;48.094;-1.690;2023-04-21T03:49:46;100484.97;;;13.30;51.45
27613;BME280;15036;48.094;-1.690;2023-04-21T03:52:12;100484.47;;;13.40;51.12
27613;BME280;15036;48.094;-1.690;2023-04-21T03:54:37;100487.72;;;13.30;51.38
27613;BME280;15036;48.094;-1.690;2023-04-21T03:57:03;100477.94;;;13.41;50.97
27613;BME280;15036;48.094;-1.690;2023-04-21T03:59:29;100479.25;;;13.32;51.34
27613;BME280;15036;48.094;-1.690;2023-04-21T04:01:56;100470.00;;;13.33;51.27
27613;BME280;15036;48.094;-1.690;2023-04-21T04:04:21;100481.69;;;13.46;50.95
27613;BME280;15036;48.094;-1.690;2023-04-21T04:06:46;100475.72;;;13.49;50.86
27613;BME280;15036;48.094;-1.690;2023-04-21T04:09:12;100478.03;;;13.52;50.58
27613;BME280;15036;48.094;-1.690;2023-04-21T04:11:37;100482.94;;;13.44;50.93
27613;BME280;15036;48.094;-1.690;2023-04-21T04:14:02;100485.47;;;13.45;50.79
27613;BME280;15036;48.094;-1.690;2023-04-21T04:16:28;100486.59;;;13.38;50.92
27613;BME280;15036;48.094;-1.690;2023-04-21T04:18:53;100477.09;;;13.40;50.70
27613;BME280;15036;48.094;-1.690;2023-04-21T04:21:19;100483.91;;;13.56;50.42
27613;BME280;15036;48.094;-1.690;2023-04-21T04:23:44;100477.03;;;13.22;50.91
27613;BME280;15036;48.094;-1.690;2023-04-21T04:26:10;100478.91;;;13.22;51.08
27613;BME280;15036;48.094;-1.690;2023-04-21T04:28:36;100472.53;;;13.28;50.85
27613;BME280;15036;48.094;-1.690;2023-04-21T04:31:02;100479.41;;;13.12;51.23
27613;BME280;15036;48.094;-1.690;2023-04-21T04:33:28;100480.91;;;13.08;51.21
27613;BME280;15036;48.094;-1.690;2023-04-21T04:35:54;100476.06;;;13.10;51.08
27613;BME280;15036;48.094;-1.690;2023-04-21T04:38:20;100472.44;;;13.16;50.93
27613;BME280;15036;48.094;-1.690;2023-04-21T04:40:55;100476.91;;;13.11;51.05
27613;BME280;15036;48.094;-1.690;2023-04-21T04:43:22;100471.44;;;13.11;51.26
27613;BME280;15036;48.094;-1.690;2023-04-21T04:45:47;100471.47;;;13.04;51.44
27613;BME280;15036;48.094;-1.690;2023-04-21T04:48:13;100474.44;;;12.96;51.73
27613;BME280;15036;48.094;-1.690;2023-04-21T04:50:38;100471.69;;;12.96;51.71
27613;BME280;15036;48.094;-1.690;2023-04-21T04:53:03;100471.03;;;13.07;51.30
27613;BME280;15036;48.094;-1.690;2023-04-21T04:55:29;100468.63;;;13.17;51.33
27613;BME280;15036;48.094;-1.690;2023-04-21T04:57:54;100472.88;;;13.13;51.25
27613;BME280;15036;48.094;-1.690;2023-04-21T05:00:20;100485.78;;;13.06;51.33
27613;BME280;15036;48.094;-1.690;2023-04-21T05:02:45;100478.19;;;13.01;51.22
27613;BME280;15036;48.094;-1.690;2023-04-21T05:05:11;100479.41;;;12.81;51.66
27613;BME280;15036;48.094;-1.690;2023-04-21T05:07:36;100479.91;;;12.96;51.52
27613;BME280;15036;48.094;-1.690;2023-04-21T05:10:01;100482.16;;;12.74;52.01
27613;BME280;15036;48.094;-1.690;2023-04-21T05:12:29;100481.78;;;13.02;51.48
27613;BME280;15036;48.094;-1.690;2023-04-21T05:14:56;100476.13;;;12.97;51.29
27613;BME280;15036;48.094;-1.690;2023-04-21T05:17:21;100476.13;;;12.97;51.44
27613;BME280;15036;48.094;-1.690;2023-04-21T05:19:47;100471.97;;;12.88;51.46
27613;BME280;15036;48.094;-1.690;2023-04-21T05:22:12;100474.19;;;12.73;51.91
27613;BME280;15036;48.094;-1.690;2023-04-21T05:24:40;100475.50;;;12.95;51.52
27613;BME280;15036;48.094;-1.690;2023-04-21T05:27:07;100474.69;;;12.88;51.64
27613;BME280;15036;48.094;-1.690;2023-04-21T05:29:32;100480.38;;;12.93;51.70
27613;BME280;15036;48.094;-1.690;2023-04-21T05:31:58;100478.44;;;12.93;51.70
27613;BME280;15036;48.094;-1.690;2023-04-21T05:34:24;100475.44;;;13.01;51.32
27613;BME280;15036;48.094;-1.690;2023-04-21T05:36:49;100474.44;;;12.96;51.48
27613;BME280;15036;48.094;-1.690;2023-04-21T05:39:16;100472.97;;;12.93;51.70
27613;BME280;15036;48.094;-1.690;2023-04-21T05:41:42;100472.47;;;12.34;52.70
27613;BME280;15036;48.094;-1.690;2023-04-21T05:44:08;100475.69;;;12.62;52.34
27613;BME280;15036;48.094;-1.690;2023-04-21T05:46:33;100485.56;;;12.70;52.12
27613;BME280;15036;48.094;-1.690;2023-04-21T05:48:59;100484.75;;;12.69;52.16
27613;BME280;15036;48.094;-1.690;2023-04-21T05:51:26;100473.91;;;12.81;51.81
27613;BME280;15036;48.094;-1.690;2023-04-21T05:53:52;100474.69;;;12.88;51.52
27613;BME280;15036;48.094;-1.690;2023-04-21T05:56:17;100473.41;;;12.97;51.39
27613;BME280;15036;48.094;-1.690;2023-04-21T05:58:42;100469.63;;;12.91;51.55
27613;BME280;15036;48.094;-1.690;2023-04-21T06:01:08;100474.81;;;13.06;51.36
27613;BME280;15036;48.094;-1.690;2023-04-21T06:03:33;100473.31;;;13.10;51.19
27613;BME280;15036;48.094;-1.690;2023-04-21T06:06:00;100475.00;;;13.11;51.01
27613;BME280;15036;48.094;-1.690;2023-04-21T06:08:26;100468.78;;;13.22;51.09
27613;BME280;15036;48.094;-1.690;2023-04-21T06:10:52;100477.38;;;13.32;50.78
27613;BME280;15036;48.094;-1.690;2023-04-21T06:13:18;100480.59;;;13.23;51.17
27613;BME280;15036;48.094;-1.690;2023-04-21T06:15:44;100474.00;;;13.30;50.83
27613;BME280;15036;48.094;-1.690;2023-04-21T06:18:09;100482.78;;;13.14;50.95
27613;BME280;15036;48.094;-1.690;2023-04-21T06:20:34;100478.53;;;13.18;51.00
27613;BME280;15036;48.094;-1.690;2023-04-21T06:23:00;100467.69;;;13.05;50.83
27613;BME280;15036;48.094;-1.690;2023-04-21T06:25:25;100477.25;;;13.21;50.81
27613;BME280;15036;48.094;-1.690;2023-04-21T06:27:51;100473.81;;;13.25;50.83
27613;BME280;15036;48.094;-1.690;2023-04-21T06:30:16;100465.72;;;13.37;50.22
27613;BME280;15036;48.094;-1.690;2023-04-21T06:32:42;100461.47;;;13.41;50.37
27613;BME280;15036;48.094;-1.690;2023-04-21T06:35:10;100465.66;;;13.43;50.31
27613;BME280;15036;48.094;-1.690;2023-04-21T06:37:35;100464.19;;;13.65;49.88
27613;BME280;15036;48.094;-1.690;2023-04-21T06:40:01;100459.13;;;13.44;50.51
27613;BME280;15036;48.094;-1.690;2023-04-21T06:42:26;100453.25;;;13.59;49.84
27613;BME280;15036;48.094;-1.690;2023-04-21T06:44:51;100454.72;;;13.61;49.89
27613;BME280;15036;48.094;-1.690;2023-04-21T06:47:17;100455.56;;;13.62;49.76
27613;BME280;15036;48.094;-1.690;2023-04-21T06:49:43;100451.03;;;13.74;49.56
27613;BME280;15036;48.094;-1.690;2023-04-21T06:52:09;100452.31;;;13.71;49.59
27613;BME280;15036;48.094;-1.690;2023-04-21T06:54:35;100445.00;;;13.83;49.15
27613;BME280;15036;48.094;-1.690;2023-04-21T06:57:01;100447.06;;;13.88;49.08
27613;BME280;15036;48.094;-1.690;2023-04-21T06:59:26;100450.63;;;13.88;49.24
27613;BME280;15036;48.094;-1.690;2023-04-21T07:01:52;100443.84;;;13.91;49.10
27613;BME280;15036;48.094;-1.690;2023-04-21T07:04:18;100436.59;;;14.15;48.90
27613;BME280;15036;48.094;-1.690;2023-04-21T07:06:43;100440.81;;;14.17;48.91
27613;BME280;15036;48.094;-1.690;2023-04-21T07:09:09;100444.53;;;14.23;48.36
27613;BME280;15036;48.094;-1.690;2023-04-21T07:11:34;100439.00;;;14.29;48.19
27613;BME280;15036;48.094;-1.690;2023-04-21T07:13:59;100444.84;;;14.33;48.05
27613;BME280;15036;48.094;-1.690;2023-04-21T07:16:27;100446.25;;;14.42;47.94
27613;BME280;15036;48.094;-1.690;2023-04-21T07:18:52;100448.72;;;14.25;48.32
27613;BME280;15036;48.094;-1.690;2023-04-21T07:21:17;100446.38;;;14.47;47.56
27613;BME280;15036;48.094;-1.690;2023-04-21T07:23:43;100438.25;;;14.52;47.47
27613;BME280;15036;48.094;-1.690;2023-04-21T07:26:08;100440.34;;;14.68;47.03
27613;BME280;15036;48.094;-1.690;2023-04-21T07:28:34;100439.91;;;14.71;46.59
27613;BME280;15036;48.094;-1.690;2023-04-21T07:30:59;100433.44;;;14.65;46.61
27613;BME280;15036;48.094;-1.690;2023-04-21T07:33:24;100438.81;;;14.72;46.30
27613;BME280;15036;48.094;-1.690;2023-04-21T07:35:50;100431.97;;;14.93;46.05
27613;BME280;15036;48.094;-1.690;2023-04-21T07:38:15;100428.13;;;14.94;45.87
27613;BME280;15036;48.094;-1.690;2023-04-21T07:40:41;100425.63;;;15.04;45.41
27613;BME280;15036;48.094;-1.690;2023-04-21T07:43:07;100426.75;;;15.14;45.01
27613;BME280;15036;48.094;-1.690;2023-04-21T07:45:32;100424.34;;;15.06;45.07
27613;BME280;15036;48.094;-1.690;2023-04-21T07:47:58;100423.38;;;15.12;45.08
27613;BME280;15036;48.094;-1.690;2023-04-21T07:50:23;100424.09;;;15.19;44.90
27613;BME280;15036;48.094;-1.690;2023-04-21T07:52:49;100416.25;;;15.34;44.79
27613;BME280;15036;48.094;-1.690;2023-04-21T07:55:14;100418.50;;;15.37;44.41
27613;BME280;15036;48.094;-1.690;2023-04-21T07:57:40;100418.53;;;15.49;44.22
27613;BME280;15036;48.094;-1.690;2023-04-21T08:00:06;100420.34;;;15.43;44.28
27613;BME280;15036;48.094;-1.690;2023-04-21T08:02:32;100417.94;;;15.47;44.00
27613;BME280;15036;48.094;-1.690;2023-04-21T08:04:57;100423.34;;;15.42;44.29
27613;BME280;15036;48.094;-1.690;2023-04-21T08:07:22;100420.94;;;15.80;43.56
27613;BME280;15036;48.094;-1.690;2023-04-21T08:09:48;100421.41;;;15.77;43.30
27613;BME280;15036;48.094;-1.690;2023-04-21T08:12:14;100420.06;;;15.91;43.06
27613;BME280;15036;48.094;-1.690;2023-04-21T08:14:40;100419.34;;;15.96;42.52
27613;BME280;15036;48.094;-1.690;2023-04-21T08:17:05;100416.91;;;16.11;42.42
27613;BME280;15036;48.094;-1.690;2023-04-21T08:19:32;100410.69;;;16.15;42.46
27613;BME280;15036;48.094;-1.690;2023-04-21T08:21:57;100417.25;;;16.14;41.79
27613;BME280;15036;48.094;-1.690;2023-04-21T08:24:24;100408.38;;;16.24;41.53
27613;BME280;15036;48.094;-1.690;2023-04-21T08:26:49;100406.22;;;16.26;41.60
27613;BME280;15036;48.094;-1.690;2023-04-21T08:29:15;100405.19;;;16.43;41.12
27613;BME280;15036;48.094;-1.690;2023-04-21T08:31:41;100404.88;;;16.40;41.10
27613;BME280;15036;48.094;-1.690;2023-04-21T08:34:06;100399.75;;;16.60;41.06
27613;BME280;15036;48.094;-1.690;2023-04-21T08:36:32;100405.66;;;16.52;41.13
27613;BME280;15036;48.094;-1.690;2023-04-21T08:38:57;100403.34;;;16.61;41.05
27613;BME280;15036;48.094;-1.690;2023-04-21T08:41:23;100407.53;;;16.63;40.56
27613;BME280;15036;48.094;-1.690;2023-04-21T08:43:49;100399.06;;;16.81;40.06
27613;BME280;15036;48.094;-1.690;2023-04-21T08:46:15;100391.31;;;16.95;40.00
27613;BME280;15036;48.094;-1.690;2023-04-21T08:48:40;100395.56;;;17.02;39.68
27613;BME280;15036;48.094;-1.690;2023-04-21T08:51:08;100388.78;;;17.10;38.67
27613;BME280;15036;48.094;-1.690;2023-04-21T08:53:36;100391.97;;;17.18;38.88
27613;BME280;15036;48.094;-1.690;2023-04-21T08:56:03;100392.78;;;17.35;38.56
27613;BME280;15036;48.094;-1.690;2023-04-21T08:58:28;100384.09;;;17.44;37.85
27613;BME280;15036;48.094;-1.690;2023-04-21T09:00:54;100378.41;;;17.67;37.40
27613;BME280;15036;48.094;-1.690;2023-04-21T09:03:26;100375.81;;;17.98;37.44
27613;BME280;15036;48.094;-1.690;2023-04-21T09:08:23;100377.59;;;18.09;37.02
27613;BME280;15036;48.094;-1.690;2023-04-21T09:10:51;100380.84;;;18.06;36.23
27613;BME280;15036;48.094;-1.690;2023-04-21T09:13:17;100379.25;;;18.10;35.92
27613;BME280;15036;48.094;-1.690;2023-04-21T09:15:48;100372.19;;;18.19;35.77
27613;BME280;15036;48.094;-1.690;2023-04-21T09:18:25;100369.91;;;18.38;35.74
27613;BME280;15036;48.094;-1.690;2023-04-21T09:21:04;100370.69;;;18.55;35.84
27613;BME280;15036;48.094;-1.690;2023-04-21T09:23:30;100369.22;;;18.74;35.72
27613;BME280;15036;48.094;-1.690;2023-04-21T09:25:55;100368.38;;;19.00;35.43
27613;BME280;15036;48.094;-1.690;2023-04-21T09:28:20;100359.69;;;18.39;34.07
27613;BME280;15036;48.094;-1.690;2023-04-21T09:30:46;100362.28;;;19.03;33.27
27613;BME280;15036;48.094;-1.690;2023-04-21T09:33:16;100363.69;;;19.06;33.18
27613;BME280;15036;48.094;-1.690;2023-04-21T09:35:44;100365.59;;;19.00;33.25
27613;BME280;15036;48.094;-1.690;2023-04-21T09:38:12;100362.28;;;19.03;32.57
27613;BME280;15036;48.094;-1.690;2023-04-21T09:40:38;100358.47;;;18.78;32.89
27613;BME280;15036;48.094;-1.690;2023-04-21T09:43:04;100360.72;;;19.13;32.94
27613;BME280;15036;48.094;-1.690;2023-04-21T09:45:30;100352.16;;;19.14;33.24
27613;BME280;15036;48.094;-1.690;2023-04-21T09:47:57;100360.03;;;18.95;33.07
27613;BME280;15036;48.094;-1.690;2023-04-21T09:50:24;100352.16;;;18.82;32.25
27613;BME280;15036;48.094;-1.690;2023-04-21T09:52:51;100354.75;;;18.94;32.17
27613;BME280;15036;48.094;-1.690;2023-04-21T09:55:18;100360.84;;;18.96;32.60
27613;BME280;15036;48.094;-1.690;2023-04-21T09:57:45;100351.28;;;19.09;32.16
27613;BME280;15036;48.094;-1.690;2023-04-21T10:00:12;100350.56;;;19.23;31.94
27613;BME280;15036;48.094;-1.690;2023-04-21T10:02:47;100349.78;;;18.96;31.78
27613;BME280;15036;48.094;-1.690;2023-04-21T10:05:13;100346.09;;;19.17;32.07
27613;BME280;15036;48.094;-1.690;2023-04-21T10:07:38;100340.31;;;19.24;31.44
27613;BME280;15036;48.094;-1.690;2023-04-21T10:10:07;100341.16;;;19.61;31.26
27613;BME280;15036;48.094;-1.690;2023-04-21T10:12:33;100339.91;;;19.42;31.25
27613;BME280;15036;48.094;-1.690;2023-04-21T10:15:03;100332.69;;;19.36;30.96
27613;BME280;15036;48.094;-1.690;2023-04-21T10:17:28;100331.75;;;19.67;30.59
27613;BME280;15036;48.094;-1.690;2023-04-21T10:19:55;100330.53;;;20.00;30.57
27613;BME280;15036;48.094;-1.690;2023-04-21T10:22:31;100325.84;;;20.05;29.95
27613;BME280;15036;48.094;-1.690;2023-04-21T10:24:59;100317.28;;;20.12;29.97
27613;BME280;15036;48.094;-1.690;2023-04-21T10:27:35;100326.56;;;20.47;30.10
27613;BME280;15036;48.094;-1.690;2023-04-21T10:30:17;100322.41;;;20.50;29.63
27613;BME280;15036;48.094;-1.690;2023-04-21T10:32:43;100319.09;;;20.68;29.52
27613;BME280;15036;48.094;-1.690;2023-04-21T10:35:21;100324.16;;;21.01;29.19
27613;BME280;15036;48.094;-1.690;2023-04-21T10:37:47;100312.44;;;20.84;29.31
27613;BME280;15036;48.094;-1.690;2023-04-21T10:40:32;100320.50;;;20.65;29.57
27613;BME280;15036;48.094;-1.690;2023-04-21T10:43:01;100311.06;;;20.92;29.53
27613;BME280;15036;48.094;-1.690;2023-04-21T10:45:27;100313.84;;;20.82;29.13
27613;BME280;15036;48.094;-1.690;2023-04-21T10:47:52;100313.53;;;20.48;29.29
27613;BME280;15036;48.094;-1.690;2023-04-21T10:50:22;100306.03;;;20.48;29.62
27613;BME280;15036;48.094;-1.690;2023-04-21T10:52:55;100301.56;;;20.37;29.75
27613;BME280;15036;48.094;-1.690;2023-04-21T10:55:25;100305.75;;;20.45;29.65
27613;BME280;15036;48.094;-1.690;2023-04-21T10:57:52;100297.16;;;20.41;29.87
27613;BME280;15036;48.094;-1.690;2023-04-21T11:00:21;100288.56;;;20.63;29.59
27613;BME280;15036;48.094;-1.690;2023-04-21T11:02:54;100290.53;;;20.57;29.55
27613;BME280;15036;48.094;-1.690;2023-04-21T11:05:26;100284.38;;;20.40;29.91
27613;BME280;15036;48.094;-1.690;2023-04-21T11:07:51;100287.47;;;20.44;29.91
27613;BME280;15036;48.094;-1.690;2023-04-21T11:10:25;100286.56;;;20.28;29.92
27613;BME280;15036;48.094;-1.690;2023-04-21T11:12:56;100286.66;;;20.73;29.06
27613;BME280;15036;48.094;-1.690;2023-04-21T11:15:21;100281.94;;;20.89;29.20
27613;BME280;15036;48.094;-1.690;2023-04-21T11:17:47;100273.63;;;21.09;28.14
27613;BME280;15036;48.094;-1.690;2023-04-21T11:20:12;100267.78;;;21.06;27.93
27613;BME280;15036;48.094;-1.690;2023-04-21T11:22:39;100265.53;;;20.93;28.11
27613;BME280;15036;48.094;-1.690;2023-04-21T11:25:04;100268.88;;;20.85;28.73
27613;BME280;15036;48.094;-1.690;2023-04-21T11:27:30;100264.44;;;21.19;28.61
27613;BME280;15036;48.094;-1.690;2023-04-21T11:29:56;100263.03;;;20.76;28.78
27613;BME280;15036;48.094;-1.690;2023-04-21T11:32:22;100263.31;;;20.64;28.66
27613;BME280;15036;48.094;-1.690;2023-04-21T11:34:47;100253.91;;;20.81;29.04
27613;BME280;15036;48.094;-1.690;2023-04-21T11:37:14;100253.34;;;21.09;29.12
27613;BME280;15036;48.094;-1.690;2023-04-21T11:39:41;100252.41;;;21.48;28.57
27613;BME280;15036;48.094;-1.690;2023-04-21T11:42:08;100250.41;;;21.59;27.86
27613;BME280;15036;48.094;-1.690;2023-04-21T11:46:59;100256.50;;;21.66;27.86
27613;BME280;15036;48.094;-1.690;2023-04-21T11:49:25;100250.16;;;21.55;27.82
27613;BME280;15036;48.094;-1.690;2023-04-21T11:51:54;100248.34;;;21.06;28.38
27613;BME280;15036;48.094;-1.690;2023-04-21T11:54:20;100251.69;;;21.03;28.71
27613;BME280;15036;48.094;-1.690;2023-04-21T11:56:48;100250.56;;;20.89;29.15
27613;BME280;15036;48.094;-1.690;2023-04-21T11:59:16;100248.47;;;21.65;28.03
27613;BME280;15036;48.094;-1.690;2023-04-21T12:04:17;100247.84;;;22.70;26.49
27613;BME280;15036;48.094;-1.690;2023-04-21T12:06:43;100238.06;;;22.78;26.31
27613;BME280;15036;48.094;-1.690;2023-04-21T12:09:16;100236.94;;;22.79;26.85
27613;BME280;15036;48.094;-1.690;2023-04-21T12:11:41;100222.47;;;23.34;25.73
27613;BME280;15036;48.094;-1.690;2023-04-21T12:14:07;100223.84;;;22.79;26.26
27613;BME280;15036;48.094;-1.690;2023-04-21T12:16:36;100230.16;;;23.66;25.25
27613;BME280;15036;48.094;-1.690;2023-04-21T12:19:10;100229.28;;;23.70;24.51
27613;BME280;15036;48.094;-1.690;2023-04-21T12:21:37;100220.69;;;24.09;24.57
27613;BME280;15036;48.094;-1.690;2023-04-21T12:24:03;100219.91;;;24.59;24.22
27613;BME280;15036;48.094;-1.690;2023-04-21T12:26:29;100226.44;;;24.87;23.52
27613;BME280;15036;48.094;-1.690;2023-04-21T12:28:54;100220.13;;;24.81;23.80
27613;BME280;15036;48.094;-1.690;2023-04-21T12:31:20;100227.50;;;25.05;23.83
27613;BME280;15036;48.094;-1.690;2023-04-21T12:33:45;100224.88;;;25.54;22.98
27613;BME280;15036;48.094;-1.690;2023-04-21T12:36:11;100225.09;;;25.85;23.09
27613;BME280;15036;48.094;-1.690;2023-04-21T12:38:36;100216.25;;;26.18;22.35
27613;BME280;15036;48.094;-1.690;2023-04-21T12:41:02;100203.28;;;26.09;22.04
27613;BME280;15036;48.094;-1.690;2023-04-21T12:43:28;100214.84;;;26.87;21.83